Time;durP1;ratioP1;P1;durP2;ratioP2;P2;SDS_P1;SDS_P2;PMS_P1;PMS_P2;Temp;Humidity;BMP_temperature;BMP_pressure;BME280_temperature;BME280_humidity;BME280_pressure;Samples;Min_cycle;Max_cycle;Signal;HPM_P1;HPM_P2
2022/05/30 00:00:41;;;;;;;2.15;0.73;;;8.70;99.90;;;;;;4821366;29;20030;-89
2022/05/30 00:03:15;;;;;;;1.45;0.52;;;9.00;99.90;;;;;;4818521;29;20038;-90
2022/05/30 00:06:18;;;;;;;1.73;0.90;;;8.70;99.90;;;;;;4813718;29;20496;-90
2022/05/30 00:09:08;;;;;;;3.17;0.90;;;8.70;99.90;;;;;;4816443;29;20030;-89
2022/05/30 00:11:48;;;;;;;3.85;0.90;;;8.60;99.90;;;;;;4833240;29;20117;-90
2022/05/30 00:14:37;;;;;;;1.63;0.60;;;8.60;99.90;;;;;;4817220;29;20069;-90
2022/05/30 00:17:03;;;;;;;1.48;0.60;;;8.60;99.90;;;;;;4820131;29;20030;-90
2022/05/30 00:19:39;;;;;;;4.00;0.68;;;8.50;99.90;;;;;;4820706;29;20090;-90
2022/05/30 00:22:18;;;;;;;1.20;0.63;;;8.50;99.90;;;;;;4821343;29;20492;-90
2022/05/30 00:25:04;;;;;;;2.30;0.82;;;8.30;99.90;;;;;;4820551;29;20629;-90
2022/05/30 00:27:35;;;;;;;3.30;0.98;;;8.50;99.90;;;;;;4821835;29;20037;-91
2022/05/30 00:30:04;;;;;;;1.70;0.60;;;8.60;99.90;;;;;;4820855;29;20038;-90
2022/05/30 00:32:53;;;;;;;1.17;0.63;;;8.50;99.90;;;;;;4818974;29;20047;-90
2022/05/30 00:35:28;;;;;;;2.05;0.57;;;8.50;99.90;;;;;;4816164;29;20463;-90
2022/05/30 00:38:23;;;;;;;;;;;;;;;;;;;;;
2022/05/30 00:40:54;;;;;;;2.58;0.80;;;8.60;99.90;;;;;;4823243;29;20031;-89
2022/05/30 00:43:39;;;;;;;1.55;0.70;;;8.60;99.90;;;;;;4820163;29;20074;-90
2022/05/30 00:46:18;;;;;;;1.55;0.70;;;8.40;99.90;;;;;;4822287;29;20046;-91
2022/05/30 00:49:25;;;;;;;3.65;0.80;;;8.60;99.90;;;;;;4823264;29;20041;-90
2022/05/30 00:51:58;;;;;;;1.85;0.70;;;8.30;99.90;;;;;;4821648;29;20095;-90
2022/05/30 00:54:34;;;;;;;1.25;0.65;;;8.30;99.90;;;;;;4821752;29;20035;-91
2022/05/30 00:57:22;;;;;;;1.98;0.70;;;8.30;99.90;;;;;;4818371;29;20412;-90
2022/05/30 01:00:33;;;;;;;2.40;1.02;;;8.60;99.90;;;;;;4819320;29;20030;-90
2022/05/30 01:08:54;;;;;;;4.03;1.40;;;8.40;99.90;;;;;;4824739;29;20045;-90
2022/05/30 01:11:23;;;;;;;2.10;0.90;;;8.30;99.90;;;;;;4824645;29;20026;-89
2022/05/30 01:14:02;;;;;;;2.90;0.88;;;8.20;99.90;;;;;;4817854;29;20035;-90
2022/05/30 01:16:34;;;;;;;2.28;1.05;;;8.20;99.90;;;;;;4821479;29;20029;-89
2022/05/30 01:19:37;;;;;;;2.47;0.90;;;8.30;99.90;;;;;;4818710;29;20041;-90
2022/05/30 01:22:15;;;;;;;;;;;;;;;;;;;;;
2022/05/30 01:24:54;;;;;;;2.28;0.90;;;8.10;99.90;;;;;;4824103;29;19916;-89
2022/05/30 01:27:47;;;;;;;2.58;1.00;;;8.10;99.90;;;;;;4820834;29;20206;-90
2022/05/30 01:30:18;;;;;;;3.42;0.85;;;8.10;99.90;;;;;;4819902;29;20064;-89
2022/05/30 01:33:06;;;;;;;2.07;0.90;;;8.10;99.90;;;;;;4822496;29;20034;-89
2022/05/30 01:35:38;;;;;;;1.50;0.57;;;8.30;99.90;;;;;;4834306;29;20275;-90
2022/05/30 01:38:04;;;;;;;2.72;0.82;;;8.20;99.90;;;;;;4820849;29;20511;-90
2022/05/30 01:40:29;;;;;;;2.05;0.60;;;8.30;99.90;;;;;;4818585;29;20047;-90
2022/05/30 01:43:16;;;;;;;1.77;0.75;;;8.00;99.90;;;;;;4820625;29;20035;-89
2022/05/30 01:45:45;;;;;;;2.03;0.63;;;8.20;99.90;;;;;;4818159;29;20070;-89
2022/05/30 01:48:17;;;;;;;2.25;0.85;;;8.10;99.90;;;;;;4822411;29;20043;-88
2022/05/30 01:50:57;;;;;;;;;;;;;;;;;;;;;
2022/05/30 01:53:23;;;;;;;2.05;0.80;;;8.10;99.90;;;;;;4823027;29;20039;-89
2022/05/30 01:56:03;;;;;;;1.60;0.90;;;8.00;99.90;;;;;;4819496;29;20066;-90
2022/05/30 01:58:44;;;;;;;1.60;0.70;;;7.80;99.90;;;;;;4823410;29;20740;-89
2022/05/30 02:01:22;;;;;;;2.47;0.68;;;7.70;99.90;;;;;;4817507;29;20408;-89
2022/05/30 02:03:49;;;;;;;1.70;0.85;;;7.70;99.90;;;;;;4821483;29;20060;-90
2022/05/30 02:06:25;;;;;;;1.77;0.63;;;7.70;99.90;;;;;;4819334;29;20031;-89
2022/05/30 02:08:56;;;;;;;1.92;0.77;;;8.00;99.90;;;;;;4832478;29;20408;-89
2022/05/30 02:11:32;;;;;;;4.45;0.90;;;7.60;99.90;;;;;;4821018;29;20038;-89
2022/05/30 02:14:01;;;;;;;3.08;0.82;;;7.70;99.90;;;;;;4817903;29;20496;-89
2022/05/30 02:23:59;;;;;;;2.05;0.77;;;8.00;99.90;;;;;;4818239;29;20047;-87
2022/05/30 02:27:31;;;;;;;1.83;0.80;;;7.60;99.90;;;;;;4811291;29;20056;-87
2022/05/30 02:30:43;;;;;;;1.60;0.70;;;7.60;99.90;;;;;;4776977;29;20042;-87
2022/05/30 02:37:21;;;;;;;2.15;0.80;;;7.50;99.90;;;;;;4825511;29;20779;-88
2022/05/30 02:40:01;;;;;;;2.40;0.77;;;7.40;99.90;;;;;;4816328;29;20035;-87
2022/05/30 02:42:46;;;;;;;1.88;0.93;;;7.40;99.90;;;;;;4820537;29;20042;-88
2022/05/30 02:45:40;;;;;;;2.03;0.93;;;7.40;99.90;;;;;;4810467;29;20524;-87
2022/05/30 02:48:36;;;;;;;1.77;0.75;;;7.50;99.90;;;;;;4781422;29;20043;-88
2022/05/30 02:52:22;;;;;;;2.42;0.77;;;7.50;99.90;;;;;;4810239;29;20050;-87
2022/05/30 02:55:02;;;;;;;2.10;0.88;;;7.40;99.90;;;;;;4795593;29;20063;-88
2022/05/30 02:58:08;;;;;;;1.08;0.70;;;7.30;99.90;;;;;;4815091;29;20054;-87
2022/05/30 03:00:48;;;;;;;1.70;0.75;;;7.40;99.90;;;;;;4812741;29;20519;-87
2022/05/30 03:03:59;;;;;;;2.33;0.88;;;7.40;99.90;;;;;;4814957;29;20062;-85
2022/05/30 03:11:06;;;;;;;4.40;1.10;;;7.30;99.90;;;;;;4810529;29;20041;-87
2022/05/30 03:14:36;;;;;;;3.80;0.90;;;7.40;99.90;;;;;;4803742;29;20084;-87
2022/05/30 03:17:35;;;;;;;2.65;0.85;;;7.30;99.90;;;;;;4815638;29;20457;-87
2022/05/30 03:20:52;;;;;;;3.90;0.98;;;7.20;99.90;;;;;;4805011;29;20501;-88
2022/05/30 03:23:28;;;;;;;3.13;1.00;;;7.10;99.90;;;;;;4796838;29;20051;-87
2022/05/30 03:26:42;;;;;;;1.48;0.80;;;7.20;99.90;;;;;;4795364;29;20507;-87
2022/05/30 03:29:27;;;;;;;;;;;;;;;;;;;;;
2022/05/30 03:32:27;;;;;;;2.17;0.98;;;6.80;99.90;;;;;;4809088;29;20489;-87
2022/05/30 03:35:23;;;;;;;2.70;1.02;;;7.20;99.90;;;;;;4807182;29;20047;-88
2022/05/30 03:41:29;;;;;;;;;;;;;;;;;;;;;
2022/05/30 03:48:27;;;;;;;7.55;0.98;;;7.60;99.90;;;;;;4799177;29;20561;-87
2022/05/30 03:52:18;;;;;;;;;;;;;;;;;;;;;
2022/05/30 05:07:37;;;;;;;3.65;1.02;;;8.70;99.90;;;;;;2805117;24;20153;-86
2022/05/30 05:10:26;;;;;;;2.83;1.17;;;8.70;99.90;;;;;;4817601;29;20030;-87
2022/05/30 05:13:02;;;;;;;2.60;0.98;;;8.80;99.90;;;;;;4812278;29;20558;-87
2022/05/30 05:16:04;;;;;;;2.78;0.95;;;8.90;99.90;;;;;;4820079;29;20034;-86
2022/05/30 05:18:39;;;;;;;;;;;9.00;99.90;;;;;;4819819;29;20087;-87
2022/05/30 05:21:51;;;;;;;;;;;;;;;;;;;;;
2022/05/30 05:24:38;;;;;;;1.85;0.85;;;9.10;99.90;;;;;;4827509;29;20158;-86
2022/05/30 05:27:25;;;;;;;2.67;1.08;;;9.20;99.90;;;;;;4839834;29;20059;-87
2022/05/30 05:33:46;;;;;;;2.20;0.93;;;9.30;99.90;;;;;;4827149;29;20062;-86
2022/05/30 05:37:22;;;;;;;;;;;;;;;;;;;;;
2022/05/30 05:40:36;;;;;;;2.22;1.05;;;9.50;99.90;;;;;;4817463;29;20122;-88
2022/05/30 05:44:09;;;;;;;;;;;;;;;;;;;;;
2022/05/30 05:46:56;;;;;;;;;;;9.90;99.90;;;;;;4802246;29;20035;-89
2022/05/30 05:49:27;;;;;;;2.10;0.80;;;9.90;99.90;;;;;;4805954;29;20307;-87
2022/05/30 05:52:04;;;;;;;2.75;0.90;;;10.70;99.90;;;;;;4823013;29;20030;-87
2022/05/30 05:55:41;;;;;;;3.13;0.90;;;10.20;99.90;;;;;;4821673;29;20042;-87
2022/05/30 05:58:16;;;;;;;2.13;0.80;;;10.00;99.90;;;;;;4822195;29;20038;-87
2022/05/30 06:00:56;;;;;;;2.30;1.00;;;10.00;99.90;;;;;;4812686;29;20051;-86
2022/05/30 06:03:22;;;;;;;4.55;0.98;;;10.00;99.90;;;;;;4831744;29;20038;-85
2022/05/30 06:05:50;;;;;;;4.85;1.00;;;9.50;99.90;;;;;;4833661;29;20034;-86
2022/05/30 06:08:49;;;;;;;2.75;1.30;;;10.60;99.90;;;;;;4830587;29;20034;-88
2022/05/30 06:11:21;;;;;;;2.72;0.95;;;10.00;99.90;;;;;;4822205;29;20034;-87
2022/05/30 06:13:57;;;;;;;2.30;1.17;;;10.10;99.90;;;;;;4820493;29;20095;-86
2022/05/30 06:16:43;;;;;;;2.97;1.15;;;10.70;99.90;;;;;;4821305;29;20038;-86
2022/05/30 06:19:11;;;;;;;3.95;1.45;;;10.40;99.90;;;;;;4821095;29;20047;-87
2022/05/30 06:21:43;;;;;;;3.70;1.25;;;10.50;99.90;;;;;;4818788;29;20034;-87
2022/05/30 06:24:25;;;;;;;2.90;1.05;;;11.20;99.90;;;;;;4819476;29;20061;-87
2022/05/30 06:27:02;;;;;;;2.08;1.10;;;10.80;99.90;;;;;;4818977;29;20389;-88
2022/05/30 06:29:56;;;;;;;;;;;;;;;;;;;;;
2022/05/30 06:36:12;;;;;;;2.75;1.23;;;11.20;99.90;;;;;;4830994;29;20050;-88
2022/05/30 06:41:51;;;;;;;5.13;1.30;;;11.50;99.90;;;;;;4823859;24;20054;-88
2022/05/30 06:45:30;;;;;;;;;;;;;;;;;;;;;
2022/05/30 06:47:42;;;;;;;4.83;1.20;;;11.80;99.90;;;;;;4820701;29;20030;-87
2022/05/30 06:50:14;;;;;;;2.35;1.10;;;11.70;99.90;;;;;;4821114;29;20034;-87
2022/05/30 07:01:00;;;;;;;;;;;;;;;;;;;;;
2022/05/30 07:03:23;;;;;;;1.60;0.70;;;12.60;99.90;;;;;;4836893;29;20035;-88
2022/05/30 07:06:36;;;;;;;2.40;0.77;;;13.20;99.90;;;;;;4828829;29;20084;-88
2022/05/30 07:13:01;;;;;;;2.58;0.65;;;12.90;99.90;;;;;;4807618;29;20077;-88
2022/05/30 07:15:31;;;;;;;2.28;0.77;;;13.20;99.90;;;;;;4806630;29;20080;-88
2022/05/30 07:18:43;;;;;;;2.00;0.75;;;13.30;99.90;;;;;;4803413;29;20030;-88
2022/05/30 07:21:43;;;;;;;1.50;1.15;;;13.60;99.90;;;;;;4815859;29;20104;-87
2022/05/30 07:24:24;;;;;;;1.63;0.90;;;14.00;99.90;;;;;;4845272;29;20042;-88
2022/05/30 07:27:21;;;;;;;1.27;0.40;;;13.30;99.90;;;;;;4828572;29;20045;-88
2022/05/30 07:30:49;;;;;;;2.53;0.75;;;13.70;99.90;;;;;;4819224;29;20050;-88
2022/05/30 07:37:18;;;;;;;1.83;0.55;;;14.00;99.90;;;;;;4682791;30;20053;-88
2022/05/30 07:39:44;;;;;;;1.02;0.40;;;14.30;99.90;;;;;;4769310;30;20036;-88
2022/05/30 07:42:41;;;;;;;3.05;0.68;;;15.00;99.90;;;;;;4784769;29;20043;-89
2022/05/30 07:49:17;;;;;;;2.17;0.50;;;15.10;99.70;;;;;;4803246;29;20098;-88
2022/05/30 07:52:06;;;;;;;3.38;0.55;;;14.40;99.30;;;;;;4786429;29;20060;-88
2022/05/30 07:55:17;;;;;;;1.42;0.50;;;14.50;99.80;;;;;;4791135;29;20174;-88
2022/05/30 08:01:26;;;;;;;2.35;0.45;;;14.80;99.80;;;;;;4752698;30;20042;-88
2022/05/30 08:07:45;;;;;;;3.15;0.60;;;15.30;97.90;;;;;;4798259;29;20050;-87
2022/05/30 08:10:56;;;;;;;1.35;0.50;;;15.30;98.00;;;;;;4817770;29;20090;-87
2022/05/30 08:16:28;;;;;;;1.42;0.60;;;15.40;97.00;;;;;;4815857;29;20033;-87
2022/05/30 08:19:32;;;;;;;0.90;0.45;;;15.60;97.30;;;;;;4819743;29;20065;-87
2022/05/30 08:22:28;;;;;;;2.13;0.43;;;16.00;97.20;;;;;;4807119;29;20039;-86
2022/05/30 08:28:52;;;;;;;2.70;0.65;;;15.90;95.40;;;;;;4846387;24;20066;-86
2022/05/30 08:31:27;;;;;;;3.35;0.52;;;16.10;94.80;;;;;;4836500;29;20065;-86
2022/05/30 08:34:02;;;;;;;2.00;0.63;;;16.30;95.00;;;;;;4833837;29;20034;-86
2022/05/30 08:36:37;;;;;;;2.65;0.82;;;16.70;95.30;;;;;;4836560;29;20026;-86
2022/05/30 08:46:17;;;;;;;1.77;0.50;;;15.90;93.30;;;;;;4807806;29;20041;-87
2022/05/30 08:49:25;;;;;;;;;;;;;;;;;;;;;
2022/05/30 08:52:28;;;;;;;1.05;0.35;;;16.10;93.60;;;;;;4852072;29;20025;-87
2022/05/30 08:59:26;;;;;;;1.08;0.38;;;16.60;92.50;;;;;;4824130;29;20038;-86
2022/05/30 09:06:13;;;;;;;1.05;0.77;;;16.30;91.90;;;;;;4842417;29;20143;-87
2022/05/30 09:18:47;;;;;;;0.40;0.28;;;17.60;90.60;;;;;;4831781;29;20547;-86
2022/05/30 09:28:19;;;;;;;1.10;0.25;;;17.80;86.70;;;;;;4838525;29;20044;-87
2022/05/30 09:31:26;;;;;;;1.42;0.60;;;18.40;86.30;;;;;;4818211;29;20029;-86
2022/05/30 09:34:00;;;;;;;1.10;0.30;;;18.80;86.80;;;;;;4839591;29;20030;-86
2022/05/30 09:39:47;;;;;;;1.10;0.40;;;18.80;85.10;;;;;;4831098;24;20080;-88
2022/05/30 09:42:55;;;;;;;0.82;0.25;;;18.80;84.00;;;;;;4825265;29;20030;-88
2022/05/30 09:45:29;;;;;;;0.80;0.30;;;18.70;84.60;;;;;;4836972;29;20037;-87
2022/05/30 09:50:56;;;;;;;2.63;0.32;;;19.20;80.30;;;;;;4800571;29;20058;-86
2022/05/30 09:53:52;;;;;;;3.45;0.82;;;19.30;80.40;;;;;;4837491;29;20125;-86
2022/05/30 09:56:46;;;;;;;;;;;;;;;;;;;;;
2022/05/30 09:59:38;;;;;;;1.88;0.30;;;19.30;77.50;;;;;;4821876;29;20034;-87
2022/05/30 10:02:32;;;;;;;0.47;0.10;;;18.40;75.90;;;;;;4824087;29;20030;-88
2022/05/30 10:05:57;;;;;;;;;;;;;;;;;;;;;
2022/05/30 10:08:44;;;;;;;0.45;0.20;;;17.60;76.60;;;;;;4819916;29;20026;-87
2022/05/30 10:11:33;;;;;;;0.47;0.20;;;17.40;74.60;;;;;;4822329;29;20030;-87
2022/05/30 10:15:06;;;;;;;;;;;;;;;;;;;;;
2022/05/30 10:18:00;;;;;;;1.20;0.30;;;18.10;76.80;;;;;;4842586;29;20100;-87
2022/05/30 10:28:33;;;;;;;;;;;;;;;;;;;;;
2022/05/30 10:34:49;;;;;;;1.05;0.28;;;20.30;69.80;;;;;;4797538;29;20046;-85
2022/05/30 10:40:00;;;;;;;0.30;0.17;;;20.30;69.00;;;;;;4841065;24;20483;-90
2022/05/30 10:42:31;;;;;;;3.50;0.40;;;20.40;67.80;;;;;;4818390;29;20216;-92
2022/05/30 10:45:04;;;;;;;0.50;0.20;;;20.40;67.00;;;;;;4820350;29;20042;-92
2022/05/30 10:47:39;;;;;;;1.60;0.50;;;20.10;69.30;;;;;;4828714;29;20989;-91
2022/05/30 10:50:46;;;;;;;1.00;0.30;;;19.70;68.70;;;;;;4835843;29;20042;-91
2022/05/30 10:53:35;;;;;;;0.98;0.20;;;19.70;68.20;;;;;;4825907;29;20034;-90
2022/05/30 10:56:14;;;;;;;0.73;0.30;;;19.60;68.10;;;;;;4844599;29;20025;-91
2022/05/30 10:59:09;;;;;;;1.05;0.30;;;19.90;68.60;;;;;;4832055;29;20034;-91
2022/05/30 11:01:49;;;;;;;1.92;0.20;;;20.60;66.90;;;;;;4823913;29;20499;-90
2022/05/30 11:04:34;;;;;;;0.85;0.20;;;21.20;67.60;;;;;;4825574;29;20171;-91
2022/05/30 11:07:29;;;;;;;0.70;0.22;;;21.50;64.90;;;;;;4824446;29;20098;-91
2022/05/30 11:10:14;;;;;;;0.30;0.17;;;21.80;64.40;;;;;;4819541;29;20487;-91
2022/05/30 11:12:45;;;;;;;2.35;0.20;;;22.10;61.30;;;;;;4822062;29;20045;-90
2022/05/30 11:15:25;;;;;;;0.57;0.20;;;22.50;64.30;;;;;;4836898;29;20057;-92
2022/05/30 11:18:17;;;;;;;0.65;0.25;;;22.90;60.60;;;;;;4833386;29;20026;-90
2022/05/30 11:20:57;;;;;;;0.85;0.22;;;23.00;58.40;;;;;;4825164;29;20059;-90
2022/05/30 11:23:23;;;;;;;1.17;0.25;;;22.50;60.00;;;;;;4830288;29;20038;-90
2022/05/30 11:26:14;;;;;;;1.17;0.30;;;22.00;59.90;;;;;;4820360;29;20023;-91
2022/05/30 11:29:18;;;;;;;1.52;0.30;;;21.40;61.10;;;;;;4834856;29;20027;-91
2022/05/30 11:32:03;;;;;;;0.77;0.30;;;20.80;61.50;;;;;;4832814;29;20044;-90
2022/05/30 11:34:55;;;;;;;0.60;0.30;;;20.20;61.90;;;;;;4836674;29;20070;-89
2022/05/30 11:37:39;;;;;;;2.08;0.20;;;19.80;63.20;;;;;;4835906;29;20025;-89
2022/05/30 11:40:20;;;;;;;1.02;0.25;;;19.60;63.40;;;;;;4830377;29;20030;-90
2022/05/30 11:42:58;;;;;;;0.75;0.20;;;19.00;64.90;;;;;;4821563;29;20170;-89
2022/05/30 11:45:51;;;;;;;1.20;0.55;;;18.90;64.90;;;;;;4825895;29;20030;-89
2022/05/30 11:48:29;;;;;;;0.45;0.30;;;18.60;63.40;;;;;;4829311;29;20026;-90
2022/05/30 11:51:19;;;;;;;1.25;0.17;;;18.40;64.30;;;;;;4822891;29;20030;-88
2022/05/30 11:54:01;;;;;;;2.78;0.38;;;18.30;65.50;;;;;;4829141;29;20101;-89
2022/05/30 11:57:03;;;;;;;0.90;0.20;;;18.20;66.90;;;;;;4831162;29;20122;-88
2022/05/30 11:59:35;;;;;;;1.13;0.30;;;18.10;65.30;;;;;;4817151;29;20066;-89
2022/05/30 12:02:06;;;;;;;0.68;0.30;;;18.10;67.00;;;;;;4811522;29;20476;-88
2022/05/30 12:05:02;;;;;;;0.50;0.20;;;18.10;65.40;;;;;;4825269;29;20062;-89
2022/05/30 12:08:05;;;;;;;1.92;0.40;;;18.90;64.60;;;;;;4836057;29;20130;-90
2022/05/30 12:10:59;;;;;;;0.80;0.20;;;19.50;62.10;;;;;;4815915;29;20118;-88
2022/05/30 12:13:53;;;;;;;1.42;0.30;;;20.40;63.80;;;;;;4829267;29;20026;-88
2022/05/30 12:16:40;;;;;;;1.48;0.38;;;21.10;60.80;;;;;;4830119;29;20021;-87
2022/05/30 12:24:57;;;;;;;0.38;0.20;;;22.50;59.10;;;;;;4826230;29;20441;-88
2022/05/30 12:27:28;;;;;;;0.30;0.20;;;22.70;58.50;;;;;;4829703;29;20052;-90
2022/05/30 12:29:55;;;;;;;0.25;0.15;;;23.10;56.60;;;;;;4825911;29;20441;-90
2022/05/30 12:32:21;;;;;;;1.17;0.20;;;23.40;57.90;;;;;;4812817;29;20069;-90
2022/05/30 12:35:00;;;;;;;0.82;0.22;;;23.70;57.30;;;;;;4825266;29;20058;-89
2022/05/30 12:37:44;;;;;;;1.33;0.30;;;23.60;56.50;;;;;;4821811;29;20039;-88
2022/05/30 12:40:32;;;;;;;0.80;0.20;;;23.60;55.20;;;;;;4822131;29;20041;-90
2022/05/30 12:43:16;;;;;;;0.90;0.20;;;23.30;56.90;;;;;;4824004;29;20542;-89
2022/05/30 12:45:57;;;;;;;0.88;0.20;;;23.60;58.30;;;;;;4822825;29;20041;-89
2022/05/30 12:48:37;;;;;;;0.40;0.15;;;23.70;57.40;;;;;;4815315;29;20039;-91
2022/05/30 12:51:23;;;;;;;2.03;0.30;;;23.90;56.20;;;;;;4812987;29;20051;-90
2022/05/30 12:53:57;;;;;;;0.93;0.20;;;24.50;54.40;;;;;;4816323;29;20109;-91
2022/05/30 12:56:43;;;;;;;1.40;0.20;;;24.70;54.00;;;;;;4813551;29;20035;-91
2022/05/30 12:59:11;;;;;;;0.65;0.20;;;24.90;54.20;;;;;;4819505;29;20050;-89
2022/05/30 13:01:43;;;;;;;0.50;0.30;;;24.10;54.00;;;;;;4823932;29;20034;-89
2022/05/30 13:04:25;;;;;;;0.20;0.10;;;23.60;53.10;;;;;;4814887;29;20436;-89
2022/05/30 13:06:58;;;;;;;1.60;0.30;;;23.70;53.40;;;;;;4830773;29;20086;-90
2022/05/30 13:09:34;;;;;;;1.58;0.40;;;23.90;54.40;;;;;;4821142;29;20403;-90
2022/05/30 13:12:15;;;;;;;0.82;0.38;;;24.10;52.20;;;;;;4815105;29;20191;-89
2022/05/30 13:14:49;;;;;;;2.30;0.50;;;24.40;52.00;;;;;;4815911;29;20488;-89
2022/05/30 13:17:18;;;;;;;0.73;0.40;;;23.80;52.10;;;;;;4815577;29;20034;-89
2022/05/30 13:19:55;;;;;;;0.90;0.30;;;23.70;53.00;;;;;;4820698;29;20407;-90
2022/05/30 13:22:28;;;;;;;0.70;0.20;;;23.60;53.10;;;;;;4821150;29;20030;-90
2022/05/30 13:24:54;;;;;;;0.73;0.20;;;23.60;52.50;;;;;;4823859;29;20037;-90
2022/05/30 13:27:21;;;;;;;2.30;0.50;;;23.90;53.00;;;;;;4821949;29;20117;-90
2022/05/30 13:29:47;;;;;;;0.45;0.30;;;24.10;52.80;;;;;;4833855;29;20029;-89
2022/05/30 13:32:15;;;;;;;0.55;0.28;;;24.60;51.10;;;;;;4828128;29;20026;-90
2022/05/30 13:34:48;;;;;;;1.05;0.47;;;24.80;51.90;;;;;;4825078;29;20030;-90
2022/05/30 13:37:24;;;;;;;1.33;0.30;;;24.90;50.50;;;;;;4837178;29;20033;-90
2022/05/30 13:39:51;;;;;;;1.75;0.40;;;25.00;50.20;;;;;;4837254;29;20029;-90
2022/05/30 13:42:16;;;;;;;0.55;0.30;;;24.40;50.10;;;;;;4829501;29;20030;-90
2022/05/30 13:44:42;;;;;;;1.00;0.70;;;24.30;50.90;;;;;;4832856;29;20507;-89
2022/05/30 13:47:20;;;;;;;1.15;0.30;;;23.90;50.60;;;;;;4821303;29;20042;-90
2022/05/30 13:49:53;;;;;;;0.88;0.30;;;24.00;52.10;;;;;;4830711;29;20034;-88
2022/05/30 13:52:25;;;;;;;2.95;0.38;;;23.50;50.80;;;;;;4828066;29;20030;-88
2022/05/30 13:54:56;;;;;;;1.13;0.40;;;22.30;50.90;;;;;;4826655;29;20033;-88
2022/05/30 13:57:23;;;;;;;1.35;0.50;;;21.80;52.80;;;;;;4830300;29;20141;-92
2022/05/30 14:00:56;;;;;;;0.80;0.30;;;21.40;53.20;;;;;;4822694;29;20037;-93
2022/05/30 14:03:26;;;;;;;0.95;0.22;;;21.00;56.50;;;;;;4831474;29;20037;-89
2022/05/30 14:05:54;;;;;;;5.80;3.20;;;21.50;54.50;;;;;;4823816;29;20031;-90
2022/05/30 14:08:34;;;;;;;1.77;0.40;;;22.20;53.10;;;;;;4834313;29;20185;-92
2022/05/30 14:11:32;;;;;;;0.98;0.30;;;23.40;53.30;;;;;;4834096;29;20029;-90
2022/05/30 14:16:59;;;;;;;0.55;0.20;;;24.50;50.90;;;;;;4832711;29;20030;-89
2022/05/30 14:19:30;;;;;;;0.60;0.35;;;25.50;49.80;;;;;;4826699;29;20018;-90
2022/05/30 14:22:12;;;;;;;0.45;0.30;;;25.60;49.90;;;;;;4818140;29;20030;-91
2022/05/30 14:24:51;;;;;;;0.80;0.30;;;25.50;48.60;;;;;;4820880;29;20038;-90
2022/05/30 14:27:35;;;;;;;1.65;0.20;;;26.30;48.50;;;;;;4834716;29;20057;-91
2022/05/30 14:30:08;;;;;;;0.50;0.20;;;26.10;48.80;;;;;;4837671;29;20034;-90
2022/05/30 14:32:39;;;;;;;0.80;0.30;;;26.10;48.80;;;;;;4829330;29;20038;-90
2022/05/30 14:35:21;;;;;;;1.27;0.30;;;25.30;47.10;;;;;;4829272;29;20504;-89
2022/05/30 14:37:50;;;;;;;0.47;0.20;;;25.90;47.00;;;;;;4836689;29;20037;-90
2022/05/30 14:40:32;;;;;;;1.05;0.40;;;26.10;46.70;;;;;;4833228;29;20057;-90
2022/05/30 14:43:20;;;;;;;0.55;0.20;;;26.10;47.60;;;;;;4835378;29;20030;-89
2022/05/30 14:46:45;;;;;;;1.48;0.30;;;26.10;47.40;;;;;;4824552;29;20445;-90
2022/05/30 14:49:18;;;;;;;0.85;0.32;;;25.70;46.90;;;;;;4827983;29;20116;-92
2022/05/30 14:52:01;;;;;;;1.58;0.30;;;26.50;48.60;;;;;;4837003;29;20059;-92
2022/05/30 14:54:43;;;;;;;0.43;0.20;;;26.20;47.20;;;;;;4826598;29;20121;-92
2022/05/30 14:57:14;;;;;;;0.93;0.30;;;25.40;48.10;;;;;;4833553;29;20108;-92
2022/05/30 14:59:44;;;;;;;0.70;0.22;;;24.30;48.00;;;;;;4830319;29;20476;-92
2022/05/30 15:04:02;;;;;;;1.00;0.40;;;24.50;49.90;;;;;;4824412;29;20027;-90
2022/05/30 15:04:58;;;;;;;1.73;0.32;;;24.70;50.70;;;;;;4823301;29;20034;-91
2022/05/30 15:07:31;;;;;;;0.82;0.20;;;24.60;49.90;;;;;;4820423;29;20034;-93
2022/05/30 15:10:07;;;;;;;1.50;0.30;;;24.40;50.20;;;;;;4827641;29;20082;-93
2022/05/30 15:12:42;;;;;;;1.50;0.60;;;24.80;50.10;;;;;;4826490;29;20057;-91
2022/05/30 15:15:09;;;;;;;1.30;0.30;;;25.50;49.80;;;;;;4828865;29;20042;-91
2022/05/30 15:17:35;;;;;;;1.40;0.40;;;25.70;48.80;;;;;;4825708;29;20033;-92
2022/05/30 15:20:03;;;;;;;1.33;0.20;;;26.20;48.90;;;;;;4824856;29;20031;-93
2022/05/30 15:22:34;;;;;;;2.35;0.30;;;26.30;47.90;;;;;;4836460;29;20022;-93
2022/05/30 15:25:07;;;;;;;1.75;0.20;;;26.40;48.10;;;;;;4838497;29;20030;-93
2022/05/30 15:27:35;;;;;;;0.63;0.20;;;26.70;48.20;;;;;;4817937;29;20065;-94
2022/05/30 15:30:01;;;;;;;1.10;0.40;;;26.80;46.30;;;;;;4816435;29;20023;-94
2022/05/30 15:32:30;;;;;;;0.73;0.20;;;26.90;46.80;;;;;;4818227;29;20121;-94
2022/05/30 15:34:56;;;;;;;1.35;0.30;;;26.70;46.50;;;;;;4815750;29;20038;-94
2022/05/30 15:37:22;;;;;;;2.78;0.30;;;26.90;47.10;;;;;;4815654;29;20023;-93
2022/05/30 15:39:48;;;;;;;1.50;0.30;;;26.50;46.70;;;;;;4831862;29;20416;-94
2022/05/30 15:42:20;;;;;;;0.60;0.30;;;26.10;45.70;;;;;;4818307;29;20392;-94
2022/05/30 15:45:16;;;;;;;1.17;0.30;;;25.70;46.40;;;;;;4815684;29;20034;-94
2022/05/30 15:47:42;;;;;;;1.33;0.50;;;25.80;47.40;;;;;;4822739;29;20057;-93
2022/05/30 15:50:08;;;;;;;2.22;0.30;;;25.70;47.20;;;;;;4828124;29;20492;-93
2022/05/30 15:58:12;;;;;;;1.23;0.50;;;25.50;47.00;;;;;;4821731;29;20120;-91
2022/05/30 16:00:39;;;;;;;2.42;0.40;;;25.00;46.40;;;;;;4828233;29;20049;-93
2022/05/30 16:03:04;;;;;;;3.15;0.38;;;24.80;47.10;;;;;;4824272;29;20038;-92
2022/05/30 16:05:30;;;;;;;1.52;0.30;;;24.90;46.40;;;;;;4824835;29;20042;-93
2022/05/30 16:08:03;;;;;;;1.40;0.30;;;24.70;46.90;;;;;;4819445;29;20022;-92
2022/05/30 16:10:28;;;;;;;1.27;0.40;;;24.70;47.50;;;;;;4819459;29;20030;-92
2022/05/30 16:12:56;;;;;;;0.73;0.20;;;24.50;47.70;;;;;;4817769;29;20030;-91
2022/05/30 16:15:22;;;;;;;0.80;0.30;;;24.20;47.90;;;;;;4823764;29;20030;-92
2022/05/30 16:17:48;;;;;;;1.13;0.35;;;24.30;48.50;;;;;;4820716;29;20141;-92
2022/05/30 16:20:15;;;;;;;1.02;0.30;;;24.20;48.40;;;;;;4816689;29;20030;-91
2022/05/30 16:22:47;;;;;;;0.95;0.30;;;23.80;48.10;;;;;;4823159;29;20022;-90
2022/05/30 16:25:15;;;;;;;0.60;0.28;;;23.30;48.30;;;;;;4823738;29;20034;-90
2022/05/30 16:27:46;;;;;;;2.50;0.50;;;22.70;49.10;;;;;;4828215;29;20022;-91
2022/05/30 16:30:12;;;;;;;3.63;0.30;;;22.20;49.10;;;;;;4824706;29;20030;-91
2022/05/30 16:32:41;;;;;;;2.95;0.40;;;21.80;49.80;;;;;;4823547;29;20034;-92
2022/05/30 16:35:08;;;;;;;1.98;0.40;;;21.40;51.30;;;;;;4829126;29;20039;-93
2022/05/30 16:37:35;;;;;;;0.52;0.20;;;21.00;51.50;;;;;;4826145;29;20044;-91
2022/05/30 16:40:01;;;;;;;0.77;0.40;;;20.80;51.90;;;;;;4817166;29;20116;-92
2022/05/30 16:42:26;;;;;;;0.50;0.20;;;20.60;52.50;;;;;;4824408;29;20027;-91
2022/05/30 16:44:52;;;;;;;1.00;0.30;;;20.20;52.30;;;;;;4824682;29;20053;-90
2022/05/30 16:47:24;;;;;;;0.82;0.25;;;20.20;51.80;;;;;;4817779;29;20034;-92
2022/05/30 16:49:51;;;;;;;0.80;0.38;;;20.10;52.20;;;;;;4828998;29;20491;-92
2022/05/30 16:52:19;;;;;;;1.63;0.40;;;20.00;52.50;;;;;;4816027;29;20504;-91
2022/05/30 16:54:45;;;;;;;1.30;0.40;;;19.80;52.10;;;;;;4816489;29;20117;-92
2022/05/30 16:57:11;;;;;;;0.85;0.30;;;19.70;52.30;;;;;;4815208;29;20072;-91
2022/05/30 16:59:38;;;;;;;1.17;0.35;;;19.70;52.10;;;;;;4819227;29;20022;-92
2022/05/30 17:02:04;;;;;;;1.00;0.32;;;19.50;52.60;;;;;;4820472;29;20033;-92
2022/05/30 17:04:30;;;;;;;1.35;0.17;;;19.30;53.40;;;;;;4817586;29;20038;-91
2022/05/30 17:06:56;;;;;;;0.70;0.22;;;18.90;53.10;;;;;;4817456;29;20026;-92
2022/05/30 17:09:27;;;;;;;0.93;0.30;;;19.20;54.40;;;;;;4844568;24;20153;-93
2022/05/30 17:12:26;;;;;;;;;;;;;;;;;;;;;
2022/05/30 17:15:05;;;;;;;1.27;0.40;;;18.90;54.90;;;;;;4834995;29;20068;-94
2022/05/30 17:17:30;;;;;;;0.60;0.20;;;18.90;55.20;;;;;;4823407;29;20080;-89
2022/05/30 17:19:57;;;;;;;0.90;0.25;;;18.80;55.00;;;;;;4819624;29;20050;-89
2022/05/30 17:22:22;;;;;;;3.50;0.98;;;18.80;54.80;;;;;;4817952;29;20042;-87
2022/05/30 17:24:49;;;;;;;0.40;0.15;;;18.70;55.10;;;;;;4825925;29;20030;-87
2022/05/30 17:30:08;;;;;;;1.38;0.30;;;18.60;55.20;;;;;;4819068;29;20100;-87
2022/05/30 17:32:34;;;;;;;1.42;0.47;;;18.60;56.40;;;;;;4823916;29;20063;-86
2022/05/30 17:35:02;;;;;;;0.82;0.22;;;18.50;55.20;;;;;;4819142;29;20638;-86
2022/05/30 17:37:30;;;;;;;0.88;0.30;;;18.50;55.90;;;;;;4812567;29;20549;-86
2022/05/30 17:39:56;;;;;;;1.45;0.45;;;18.10;55.30;;;;;;4823975;29;20151;-86
2022/05/30 17:42:23;;;;;;;1.00;0.30;;;18.30;56.30;;;;;;4818966;29;20105;-87
2022/05/30 17:44:49;;;;;;;0.50;0.20;;;18.30;56.80;;;;;;4822073;29;20034;-86
2022/05/30 17:47:34;;;;;;;1.45;0.30;;;18.30;56.20;;;;;;4822721;29;20077;-86
2022/05/30 17:50:08;;;;;;;1.40;0.28;;;18.20;56.20;;;;;;4822007;29;20038;-86
2022/05/30 17:53:04;;;;;;;1.55;0.40;;;18.10;55.90;;;;;;4819947;29;20034;-86
2022/05/30 17:55:35;;;;;;;1.27;0.35;;;18.00;56.80;;;;;;4816161;29;20129;-86
2022/05/30 17:58:01;;;;;;;1.02;0.30;;;18.00;55.90;;;;;;4822056;29;20033;-87
2022/05/30 18:00:27;;;;;;;1.38;0.20;;;17.90;56.70;;;;;;4824059;29;20038;-86